Time;durP1;ratioP1;P1;durP2;ratioP2;P2;SDS_P1;SDS_P2;PMS_P1;PMS_P2;Temp;Humidity;BMP_temperature;BMP_pressure;BME280_temperature;BME280_humidity;BME280_pressure;Samples;Min_cycle;Max_cycle;Signal;HPM_P1;HPM_P2
2021/11/20 00:03:54;;;;;;;37.37;14.03;;;;;;;5.04;100.00;99879.81;31057523;28;21803;-73
2021/11/20 00:18:56;;;;;;;42.43;14.70;;;;;;;5.19;100.00;99871.75;31049432;28;20528;-72
2021/11/20 00:33:59;;;;;;;42.23;15.07;;;;;;;5.21;100.00;99877.47;31049526;28;20065;-72
2021/11/20 00:49:02;;;;;;;48.33;16.63;;;;;;;5.26;100.00;99848.25;31050187;28;20483;-73
2021/11/20 01:04:06;;;;;;;37.47;16.03;;;;;;;5.27;100.00;99809.41;31048224;28;20077;-72
2021/11/20 01:19:08;;;;;;;38.73;14.43;;;;;;;5.24;100.00;99804.03;31050716;28;20050;-72
2021/11/20 01:34:10;;;;;;;39.07;16.17;;;;;;;5.22;100.00;99784.81;31085407;28;20057;-72
2021/11/20 01:49:29;;;;;;;33.43;13.47;;;;;;;5.27;100.00;99750.22;31072399;28;20050;-73
2021/11/20 02:04:41;;;;;;;40.83;13.87;;;;;;;5.30;100.00;99759.44;31055418;28;20057;-73
2021/11/20 02:19:48;;;;;;;37.80;15.20;;;;;;;5.35;100.00;99745.56;31063528;28;20057;-74
2021/11/20 02:34:52;;;;;;;34.80;16.37;;;;;;;5.46;100.00;99724.75;31063859;28;20058;-73
2021/11/20 02:49:54;;;;;;;35.53;15.27;;;;;;;5.46;100.00;99700.50;31064253;28;20050;-74
2021/11/20 03:04:56;;;;;;;29.83;13.80;;;;;;;5.47;100.00;99677.81;31057969;28;20067;-73
2021/11/20 03:19:59;;;;;;;33.83;17.00;;;;;;;5.52;100.00;99668.56;31059497;28;20065;-75
2021/11/20 03:35:01;;;;;;;29.50;13.83;;;;;;;5.57;100.00;99642.00;31061814;28;20053;-74
2021/11/20 03:50:05;;;;;;;30.10;12.60;;;;;;;5.54;100.00;99612.41;31038344;28;20050;-74
2021/11/20 04:05:08;;;;;;;27.50;11.87;;;;;;;5.54;100.00;99586.25;31059875;28;20058;-73
2021/11/20 04:20:14;;;;;;;27.07;12.40;;;;;;;5.61;100.00;99577.34;31047923;28;20085;-75
2021/11/20 04:35:19;;;;;;;37.40;14.53;;;;;;;5.66;100.00;99553.47;31068977;28;20069;-75
2021/11/20 04:50:22;;;;;;;25.53;12.60;;;;;;;5.71;100.00;99536.84;31050576;28;20467;-74
2021/11/20 05:05:25;;;;;;;24.63;11.43;;;;;;;5.73;100.00;99517.59;31075430;28;20270;-74
2021/11/20 05:20:27;;;;;;;35.03;14.87;;;;;;;5.80;100.00;99512.91;31072071;28;20472;-74
2021/11/20 05:35:30;;;;;;;32.80;14.57;;;;;;;5.86;100.00;99512.50;31070441;28;20050;-75
2021/11/20 05:50:34;;;;;;;20.83;9.57;;;;;;;5.90;100.00;99483.63;31054270;28;20042;-74
2021/11/20 06:05:38;;;;;;;26.10;10.70;;;;;;;5.95;100.00;99480.47;31064960;28;20058;-73
2021/11/20 06:20:42;;;;;;;24.10;11.40;;;;;;;6.04;100.00;99461.91;31050509;28;20075;-72
2021/11/20 06:36:00;;;;;;;19.03;10.80;;;;;;;6.10;100.00;99460.28;31063323;28;20077;-74
2021/11/20 06:51:03;;;;;;;21.33;12.87;;;;;;;6.12;100.00;99436.41;31042277;28;20042;-74
2021/11/20 07:06:18;;;;;;;19.00;11.27;;;;;;;6.15;100.00;99414.03;31058742;28;20108;-73
2021/11/20 07:21:25;;;;;;;23.13;13.30;;;;;;;6.25;100.00;99407.75;31086011;28;20056;-77
2021/11/20 07:36:28;;;;;;;21.53;11.23;;;;;;;6.21;100.00;99379.31;31096640;28;20058;-75
2021/11/20 07:51:30;;;;;;;18.47;10.73;;;;;;;6.30;100.00;99345.28;31107025;28;20053;-77
2021/11/20 08:06:34;;;;;;;21.67;12.67;;;;;;;6.40;100.00;99351.69;31096712;28;20073;-76
2021/11/20 08:21:36;;;;;;;29.83;18.40;;;;;;;6.54;100.00;99326.47;31019025;28;20503;-76
2021/11/20 08:36:39;;;;;;;18.53;7.77;;;;;;;6.70;100.00;99296.91;30960414;28;20042;-75
2021/11/20 08:51:43;;;;;;;14.20;8.60;;;;;;;6.92;100.00;99287.25;30961005;28;20050;-74
2021/11/20 09:07:01;;;;;;;12.83;7.60;;;;;;;7.04;100.00;99270.47;30957485;28;20062;-75
2021/11/20 09:22:05;;;;;;;17.53;10.33;;;;;;;7.26;100.00;99237.69;30953997;28;20054;-75
2021/11/20 09:37:07;;;;;;;16.17;9.93;;;;;;;7.47;100.00;99202.13;30952135;28;20480;-75
2021/11/20 09:52:10;;;;;;;16.87;8.83;;;;;;;7.86;100.00;99180.41;30984101;28;20059;-72
2021/11/20 10:07:21;;;;;;;18.23;9.93;;;;;;;8.03;100.00;99161.50;30962673;28;20546;-73
2021/11/20 10:22:39;;;;;;;20.33;10.33;;;;;;;8.30;100.00;99153.84;30981677;28;20055;-74
2021/11/20 10:37:49;;;;;;;17.33;9.70;;;;;;;8.67;100.00;99146.38;30955283;28;20511;-75
2021/11/20 10:53:19;;;;;;;17.37;8.80;;;;;;;8.93;100.00;99137.13;30980432;28;20042;-74
2021/11/20 11:08:42;;;;;;;16.17;8.97;;;;;;;8.99;100.00;99142.75;30982367;28;20038;-76
2021/11/20 11:24:08;;;;;;;17.70;8.90;;;;;;;9.23;100.00;99135.84;30971837;28;20058;-74
2021/11/20 11:39:33;;;;;;;16.45;8.57;;;;;;;9.57;100.00;99132.50;30983088;28;20134;-74
2021/11/20 11:54:42;;;;;;;14.80;7.10;;;;;;;9.81;100.00;99139.09;30979874;28;20085;-74
2021/11/20 12:09:48;;;;;;;11.27;6.43;;;;;;;10.03;100.00;99130.28;30946808;28;20046;-74
2021/11/20 12:25:01;;;;;;;9.23;5.10;;;;;;;10.11;100.00;99148.59;30981539;28;20058;-75
2021/11/20 12:40:18;;;;;;;4.67;3.33;;;;;;;10.19;100.00;99154.56;30975621;28;20052;-78
2021/11/20 12:55:58;;;;;;;4.20;2.90;;;;;;;10.24;100.00;99173.00;30961365;28;20705;-78
2021/11/20 13:11:09;;;;;;;3.40;2.23;;;;;;;10.27;100.00;99166.69;30965822;28;20061;-74
2021/11/20 13:26:25;;;;;;;6.33;2.63;;;;;;;10.32;100.00;99185.13;30996104;28;20061;-76
2021/11/20 13:41:29;;;;;;;3.63;2.53;;;;;;;10.31;100.00;99188.28;31009115;28;20050;-75
2021/11/20 13:56:32;;;;;;;4.87;2.10;;;;;;;10.31;100.00;99226.25;30961642;28;20042;-76
2021/11/20 14:11:35;;;;;;;6.90;2.57;;;;;;;10.21;100.00;99252.53;30989725;28;20054;-74
2021/11/20 14:26:46;;;;;;;10.27;2.77;;;;;;;9.95;100.00;99232.00;30978625;28;20665;-74
2021/11/20 14:41:49;;;;;;;5.70;3.10;;;;;;;9.80;100.00;99261.50;31001905;28;20046;-73
2021/11/20 14:57:04;;;;;;;8.73;3.07;;;;;;;9.79;98.11;99279.72;31002983;28;20062;-75
2021/11/20 15:12:09;;;;;;;3.40;2.80;;;;;;;9.80;97.42;99302.94;31002949;28;20133;-75
2021/11/20 15:27:11;;;;;;;10.00;2.80;;;;;;;9.82;98.92;99324.94;30984342;28;20050;-78
2021/11/20 15:42:13;;;;;;;7.47;2.67;;;;;;;9.64;96.41;99365.34;30973052;28;20045;-76
2021/11/20 15:57:15;;;;;;;6.27;2.17;;;;;;;9.43;95.35;99401.91;31000760;28;20056;-74
2021/11/20 16:12:17;;;;;;;5.93;2.43;;;;;;;9.20;94.52;99402.13;30964419;28;20042;-75
2021/11/20 16:27:20;;;;;;;6.37;3.20;;;;;;;9.09;91.70;99424.03;30989030;28;20057;-74
2021/11/20 16:42:25;;;;;;;9.37;3.70;;;;;;;8.94;93.85;99444.53;30993918;28;20061;-75
2021/11/20 16:57:29;;;;;;;7.37;3.40;;;;;;;8.96;97.24;99461.09;30949618;28;20051;-75
2021/11/20 17:12:31;;;;;;;8.83;2.77;;;;;;;8.81;92.93;99465.31;30978310;28;20580;-73
2021/11/20 17:27:33;;;;;;;8.07;3.33;;;;;;;8.59;92.15;99489.38;30971832;28;20046;-74
2021/11/20 17:42:35;;;;;;;4.57;2.80;;;;;;;8.37;93.93;99521.50;30958610;28;20058;-73
2021/11/20 17:57:37;;;;;;;5.33;2.63;;;;;;;8.19;93.03;99531.88;30949556;28;20050;-75
2021/11/20 18:12:40;;;;;;;5.83;2.10;;;;;;;8.14;88.80;99540.47;30996334;28;20050;-76
2021/11/20 18:27:42;;;;;;;5.03;2.10;;;;;;;8.16;89.32;99554.34;30963608;28;20062;-74
2021/11/20 18:42:45;;;;;;;5.43;2.10;;;;;;;7.99;87.22;99555.44;30988604;28;20149;-77
2021/11/20 18:57:47;;;;;;;8.93;2.60;;;;;;;7.76;88.96;99586.69;30966016;28;20054;-74
2021/11/20 19:12:50;;;;;;;5.10;2.00;;;;;;;7.61;82.18;99620.50;30971745;28;20129;-76
2021/11/20 19:27:52;;;;;;;5.67;1.70;;;;;;;7.48;87.75;99646.56;30993813;28;20141;-74
2021/11/20 19:42:54;;;;;;;11.17;4.57;;;;;;;7.28;87.37;99686.19;30990085;28;20054;-76
2021/11/20 19:57:56;;;;;;;7.63;2.10;;;;;;;7.15;82.61;99721.03;30978557;28;20081;-76
2021/11/20 20:13:00;;;;;;;5.73;1.73;;;;;;;6.98;81.38;99725.47;30980210;28;20050;-76
2021/11/20 20:28:03;;;;;;;4.03;1.90;;;;;;;6.87;84.96;99761.81;30992354;28;20058;-77
2021/11/20 20:43:05;;;;;;;3.47;1.83;;;;;;;6.82;84.54;99796.19;30968275;28;20050;-74
2021/11/20 20:58:07;;;;;;;7.60;1.90;;;;;;;6.64;80.70;99822.53;30961943;28;20475;-74
2021/11/20 21:13:09;;;;;;;5.33;2.03;;;;;;;6.61;83.15;99828.75;30961776;28;20503;-75
2021/11/20 21:28:12;;;;;;;4.43;1.83;;;;;;;6.48;82.17;99847.31;30958394;28;20058;-75
2021/11/20 21:43:14;;;;;;;3.20;1.50;;;;;;;6.29;80.74;99880.19;30993955;28;20144;-77
2021/11/20 21:58:16;;;;;;;5.13;2.10;;;;;;;6.27;84.88;99904.09;30995775;28;20157;-73
2021/11/20 22:13:18;;;;;;;18.60;2.33;;;;;;;6.19;81.42;99902.56;30999027;28;20064;-72
2021/11/20 22:28:20;;;;;;;6.80;1.90;;;;;;;6.02;86.09;99936.53;30972328;28;20056;-74
2021/11/20 22:43:22;;;;;;;7.77;2.10;;;;;;;5.94;84.12;99939.66;31008879;28;20061;-74
2021/11/20 22:58:24;;;;;;;8.83;1.70;;;;;;;5.83;85.31;99961.97;30962664;28;20062;-76
2021/11/20 23:13:26;;;;;;;5.57;2.30;;;;;;;5.57;83.21;99975.88;30930921;28;20050;-74
2021/11/20 23:28:28;;;;;;;5.80;1.80;;;;;;;5.54;84.97;99982.03;30942978;28;20058;-74
2021/11/20 23:43:30;;;;;;;6.00;1.70;;;;;;;5.50;84.52;100000.13;30950496;28;20064;-73
2021/11/20 23:58:33;;;;;;;3.90;1.80;;;;;;;5.25;84.42;100028.97;30942354;28;20489;-74
